createdAt,value
2023-04-15T00:01:49.355Z,80.67
2023-04-15T00:04:18.634Z,80.62
2023-04-15T00:06:55.463Z,80.49
2023-04-15T00:09:25.087Z,80.40
2023-04-15T00:11:59.402Z,80.64
2023-04-15T00:14:28.478Z,80.42
2023-04-15T00:16:57.994Z,80.52
2023-04-15T00:19:27.266Z,80.52
2023-04-15T00:21:58.927Z,80.31
2023-04-15T00:24:31.558Z,80.69
2023-04-15T00:26:58.989Z,80.56
2023-04-15T00:29:28.628Z,80.79
2023-04-15T00:31:58.108Z,80.59
2023-04-15T00:34:28.014Z,80.55
2023-04-15T00:36:59.906Z,80.86
2023-04-15T00:39:28.988Z,80.90
2023-04-15T00:42:03.373Z,80.78
2023-04-15T00:44:30.266Z,80.67
2023-04-15T00:47:03.041Z,80.42
2023-04-15T00:49:29.987Z,80.29
2023-04-15T00:51:59.183Z,80.04
2023-04-15T00:54:30.365Z,80.10
2023-04-15T00:56:59.747Z,79.88
2023-04-15T00:59:29.375Z,79.96
2023-04-15T01:01:58.692Z,80.07
2023-04-15T01:04:28.125Z,80.26
2023-04-15T01:06:57.612Z,80.36
2023-04-15T01:09:29.184Z,80.29
2023-04-15T01:11:58.758Z,80.57
2023-04-15T01:14:30.923Z,80.32
2023-04-15T01:17:00.020Z,80.43
2023-04-15T01:19:29.417Z,80.01
2023-04-15T01:21:57.769Z,79.77
2023-04-15T01:24:28.422Z,79.94
2023-04-15T01:26:57.743Z,79.67
2023-04-15T01:29:27.613Z,79.47
2023-04-15T01:32:02.274Z,79.97
2023-04-15T01:34:35.629Z,79.69
2023-04-15T01:37:07.527Z,79.78
2023-04-15T01:39:36.864Z,79.28
2023-04-15T01:42:11.248Z,79.64
2023-04-15T01:44:42.931Z,79.64
2023-04-15T01:47:19.507Z,79.35
2023-04-15T01:49:48.779Z,79.27
2023-04-15T01:52:16.000Z,79.40
2023-04-15T01:54:45.908Z,78.92
2023-04-15T01:57:19.765Z,79.28
2023-04-15T01:59:49.555Z,79.22
2023-04-15T02:02:16.438Z,78.83
2023-04-15T02:04:45.675Z,78.83
2023-04-15T02:07:12.524Z,78.97
2023-04-15T02:09:41.701Z,78.90
2023-04-15T02:12:18.404Z,79.02
2023-04-15T02:14:50.519Z,79.16
2023-04-15T02:17:19.871Z,79.22
2023-04-15T02:19:49.742Z,79.22
2023-04-15T02:22:19.084Z,78.95
2023-04-15T02:24:47.223Z,78.97
2023-04-15T02:27:19.596Z,78.83
2023-04-15T02:29:53.163Z,78.91
2023-04-15T02:32:24.889Z,78.67
2023-04-15T02:34:59.332Z,78.48
2023-04-15T02:37:30.657Z,78.78
2023-04-15T02:40:02.466Z,78.64
2023-04-15T02:42:30.528Z,78.19
2023-04-15T02:45:01.712Z,78.48
2023-04-15T02:47:35.092Z,78.59
2023-04-15T02:50:07.256Z,77.74
2023-04-15T02:52:41.406Z,77.93
2023-04-15T02:55:13.555Z,78.00
2023-04-15T02:57:42.973Z,77.94
2023-04-15T03:00:15.261Z,77.95
2023-04-15T03:02:47.435Z,77.95
2023-04-15T03:05:16.913Z,78.28
2023-04-15T03:07:54.060Z,78.32
2023-04-15T03:10:23.451Z,78.29
2023-04-15T03:12:52.594Z,78.62
2023-04-15T03:15:26.260Z,78.53
2023-04-15T03:17:59.554Z,78.36
2023-04-15T03:20:28.639Z,78.66
2023-04-15T03:23:02.727Z,78.52
2023-04-15T03:25:29.524Z,78.64
2023-04-15T03:28:02.797Z,78.52
2023-04-15T03:30:32.096Z,78.69
2023-04-15T03:33:03.496Z,78.39
2023-04-15T03:35:33.010Z,78.60
2023-04-15T03:38:02.214Z,78.34
2023-04-15T03:40:31.337Z,78.41
2023-04-15T03:43:00.675Z,78.38
2023-04-15T03:45:29.684Z,78.42
2023-04-15T03:48:11.421Z,78.13
2023-04-15T03:50:43.209Z,78.15
2023-04-15T03:53:14.857Z,78.41
2023-04-15T03:55:46.809Z,78.29
2023-04-15T03:58:15.814Z,78.28
2023-04-15T04:00:47.418Z,78.24
2023-04-15T04:03:17.676Z,78.23
2023-04-15T04:05:51.762Z,77.89
2023-04-15T04:08:23.002Z,77.78
2023-04-15T04:10:54.656Z,77.27
2023-04-15T04:13:23.934Z,77.52
2023-04-15T04:15:53.181Z,77.69
2023-04-15T04:18:26.967Z,77.61
2023-04-15T04:20:58.572Z,76.92
2023-04-15T04:23:30.721Z,77.06
2023-04-15T04:26:04.355Z,77.29
2023-04-15T04:28:31.214Z,77.31
2023-04-15T04:31:02.658Z,77.76
2023-04-15T04:33:31.724Z,77.67
2023-04-15T04:36:01.601Z,77.81
2023-04-15T04:38:28.443Z,77.82
2023-04-15T04:40:57.704Z,77.52
2023-04-15T04:43:24.479Z,77.41
2023-04-15T04:45:58.441Z,77.49
2023-04-15T04:48:27.738Z,77.42
2023-04-15T04:50:56.856Z,77.21
2023-04-15T04:53:25.883Z,77.01
2023-04-15T04:55:52.666Z,76.86
2023-04-15T04:58:22.032Z,76.64
2023-04-15T05:00:52.089Z,76.97
2023-04-15T05:03:22.213Z,77.03
2023-04-15T05:05:49.584Z,76.31
2023-04-15T05:08:18.615Z,76.42
2023-04-15T05:10:49.914Z,76.46
2023-04-15T05:13:19.164Z,76.06
2023-04-15T05:15:48.336Z,75.97
2023-04-15T05:18:17.620Z,75.68
2023-04-15T05:20:50.194Z,75.85
2023-04-15T05:23:17.915Z,75.39
2023-04-15T05:25:49.509Z,75.19
2023-04-15T05:28:16.603Z,75.45
2023-04-15T05:30:45.767Z,74.90
2023-04-15T05:33:17.731Z,75.61
2023-04-15T05:35:47.024Z,75.59
2023-04-15T05:38:16.339Z,74.79
2023-04-15T05:40:47.912Z,74.05
2023-04-15T05:43:14.745Z,74.03
2023-04-15T05:45:41.721Z,74.75
2023-04-15T05:48:11.018Z,74.76
2023-04-15T05:50:37.840Z,75.07
2023-04-15T05:53:09.565Z,74.71
2023-04-15T05:55:41.206Z,74.85
2023-04-15T05:58:10.366Z,75.12
2023-04-15T06:00:39.562Z,74.35
2023-04-15T06:03:08.637Z,74.19
2023-04-15T06:05:42.733Z,74.00
2023-04-15T06:08:09.832Z,73.94
2023-04-15T06:10:37.111Z,73.87
2023-04-15T06:13:07.697Z,73.83
2023-04-15T06:15:39.493Z,73.80
2023-04-15T06:18:08.493Z,73.28
2023-04-15T06:20:40.324Z,73.41
2023-04-15T06:23:12.191Z,73.03
2023-04-15T06:25:41.247Z,72.87
2023-04-15T06:28:10.247Z,72.87
2023-04-15T06:30:37.175Z,73.19
2023-04-15T06:33:06.709Z,72.14
2023-04-15T06:35:33.693Z,71.40
2023-04-15T06:38:02.800Z,71.54
2023-04-15T06:40:34.784Z,72.29
2023-04-15T06:43:05.044Z,72.01
2023-04-15T06:45:37.451Z,72.06
2023-04-15T06:48:04.573Z,71.80
2023-04-15T06:50:33.876Z,72.31
2023-04-15T06:53:05.222Z,72.08
2023-04-15T06:55:34.582Z,72.16
2023-04-15T06:58:06.928Z,71.55
2023-04-15T07:00:34.192Z,71.95
2023-04-15T07:03:05.832Z,72.37
2023-04-15T07:05:35.033Z,72.11
2023-04-15T07:08:07.055Z,71.79
2023-04-15T07:10:34.455Z,71.12
2023-04-15T07:13:01.974Z,71.50
2023-04-15T07:15:34.161Z,71.88
2023-04-15T07:18:03.797Z,70.21
2023-04-15T07:20:36.079Z,70.40
2023-04-15T07:23:05.050Z,69.94
2023-04-15T07:25:36.914Z,68.64
2023-04-15T07:28:06.558Z,69.01
2023-04-15T07:30:35.834Z,69.51
2023-04-15T07:33:05.042Z,69.78
2023-04-15T07:35:38.919Z,68.20
2023-04-15T07:38:10.569Z,68.63
2023-04-15T07:40:39.580Z,68.10
2023-04-15T07:43:06.796Z,69.04
2023-04-15T07:45:36.017Z,68.88
2023-04-15T07:48:06.831Z,69.12
2023-04-15T07:50:36.290Z,69.20
2023-04-15T07:53:09.867Z,69.80
2023-04-15T07:55:41.778Z,69.59
2023-04-15T07:58:14.023Z,69.31
2023-04-15T08:00:43.004Z,69.15
2023-04-15T08:03:14.359Z,68.75
2023-04-15T08:05:47.474Z,68.83
2023-04-15T08:08:22.516Z,68.02
2023-04-15T08:10:52.480Z,68.43
2023-04-15T08:13:25.434Z,68.23
2023-04-15T08:16:13.632Z,67.82
2023-04-15T08:18:42.928Z,67.85
2023-04-15T08:21:12.310Z,67.58
2023-04-15T08:23:39.549Z,67.46
2023-04-15T08:26:11.666Z,66.63
2023-04-15T08:28:44.305Z,66.59
2023-04-15T08:31:14.179Z,66.86
2023-04-15T08:33:41.049Z,66.41
2023-04-15T08:36:08.102Z,65.82
2023-04-15T08:38:40.075Z,66.27
2023-04-15T08:41:25.574Z,66.42
2023-04-15T08:44:05.556Z,65.46
2023-04-15T08:46:35.469Z,65.56
2023-04-15T08:49:07.396Z,65.48
2023-04-15T08:51:39.629Z,65.73
2023-04-15T08:54:09.705Z,65.63
2023-04-15T08:56:39.222Z,65.20
2023-04-15T08:59:13.346Z,65.37
2023-04-15T09:01:43.645Z,65.55
2023-04-15T09:04:14.068Z,65.23
2023-04-15T09:06:43.151Z,65.27
2023-04-15T09:09:12.452Z,65.34
2023-04-15T09:11:41.617Z,65.56
2023-04-15T09:14:08.602Z,65.04
2023-04-15T09:17:02.774Z,65.06
2023-04-15T09:19:34.336Z,65.77
2023-04-15T09:22:08.649Z,65.84
2023-04-15T09:24:42.407Z,65.11
2023-04-15T09:27:11.665Z,65.49
2023-04-15T09:29:44.237Z,66.21
2023-04-15T09:32:18.857Z,65.56
2023-04-15T09:34:48.316Z,65.16
2023-04-15T09:37:31.782Z,65.56
2023-04-15T09:40:04.306Z,64.83
2023-04-15T09:42:31.220Z,65.04
2023-04-15T09:45:12.209Z,63.92
2023-04-15T09:47:41.435Z,64.84
2023-04-15T09:50:08.602Z,64.86
2023-04-15T09:52:48.032Z,64.66
2023-04-15T09:55:18.864Z,64.98
2023-04-15T09:57:50.486Z,65.06
2023-04-15T10:00:22.505Z,64.83
2023-04-15T10:02:52.425Z,64.71
2023-04-15T10:05:22.194Z,64.73
2023-04-15T10:07:49.946Z,64.76
2023-04-15T10:10:19.226Z,64.69
2023-04-15T10:12:51.869Z,64.62
2023-04-15T10:15:25.517Z,63.59
2023-04-15T10:17:58.591Z,64.43
2023-04-15T10:20:29.211Z,64.07
2023-04-15T10:22:58.748Z,64.40
2023-04-15T10:25:33.575Z,64.17
2023-04-15T10:28:03.708Z,64.53
2023-04-15T10:30:33.880Z,64.68
2023-04-15T10:33:07.092Z,64.63
2023-04-15T10:35:37.020Z,64.94
2023-04-15T10:38:33.381Z,64.72
2023-04-15T10:41:34.791Z,64.29
2023-04-15T10:44:05.342Z,64.61
2023-04-15T10:46:36.872Z,64.76
2023-04-15T10:49:16.523Z,64.57
2023-04-15T10:51:56.228Z,64.40
2023-04-15T10:54:25.414Z,64.62
2023-04-15T10:57:08.370Z,62.90
2023-04-15T11:00:02.960Z,63.17
2023-04-15T11:02:47.554Z,63.99
2023-04-15T11:05:18.180Z,63.95
2023-04-15T11:07:47.425Z,63.82
2023-04-15T11:10:16.546Z,64.01
2023-04-15T11:12:48.740Z,64.03
2023-04-15T11:15:32.053Z,63.73
2023-04-15T11:18:08.664Z,64.08
2023-04-15T11:20:40.781Z,63.67
2023-04-15T11:23:15.269Z,63.37
2023-04-15T11:25:46.175Z,63.03
2023-04-15T11:28:16.245Z,63.26
2023-04-15T11:30:45.462Z,63.37
2023-04-15T11:33:14.850Z,63.29
2023-04-15T11:35:42.527Z,63.17
2023-04-15T11:38:15.681Z,63.09
2023-04-15T11:40:47.479Z,63.45
2023-04-15T11:43:20.955Z,63.42
2023-04-15T11:45:59.992Z,63.29
2023-04-15T11:48:37.897Z,63.32
2023-04-15T11:51:09.766Z,62.87
2023-04-15T11:53:51.268Z,62.84
2023-04-15T11:56:25.637Z,63.27
2023-04-15T11:59:03.190Z,63.14
2023-04-15T12:01:39.996Z,62.99
2023-04-15T12:04:17.720Z,63.16
2023-04-15T12:06:51.859Z,63.43
2023-04-15T12:09:23.961Z,63.26
2023-04-15T12:11:59.708Z,62.70
2023-04-15T12:14:34.737Z,61.90
2023-04-15T12:17:05.049Z,62.31
2023-04-15T12:19:36.870Z,61.61
2023-04-15T12:22:11.139Z,56.53
2023-04-15T12:24:48.852Z,58.72
2023-04-15T12:27:21.337Z,58.93
2023-04-15T12:29:52.921Z,59.13
2023-04-15T12:32:22.981Z,59.38
2023-04-15T12:34:57.179Z,59.63
2023-04-15T12:37:28.882Z,58.96
2023-04-15T12:40:00.698Z,58.52
2023-04-15T12:42:32.531Z,57.26
2023-04-15T12:44:59.278Z,56.97
2023-04-15T12:47:26.303Z,55.88
2023-04-15T12:49:56.079Z,56.22
2023-04-15T12:52:27.499Z,55.67
2023-04-15T12:54:54.241Z,54.92
2023-04-15T12:57:25.413Z,55.25
2023-04-15T12:59:57.085Z,55.15
2023-04-15T13:02:25.859Z,55.75
2023-04-15T13:04:55.218Z,55.96
2023-04-15T13:07:24.319Z,56.47
2023-04-15T13:09:53.698Z,57.42
2023-04-15T13:12:22.935Z,57.60
2023-04-15T13:14:57.156Z,58.31
2023-04-15T13:17:29.979Z,58.72
2023-04-15T13:19:59.496Z,58.94
2023-04-15T13:22:28.761Z,59.42
2023-04-15T13:25:02.624Z,60.58
2023-04-15T13:27:29.425Z,61.12
2023-04-15T13:30:01.025Z,60.70
2023-04-15T13:32:33.435Z,61.45
2023-04-15T13:35:02.511Z,61.53
2023-04-15T13:37:34.235Z,62.24
2023-04-15T13:40:07.465Z,62.41
2023-04-15T13:42:39.555Z,62.93
2023-04-15T13:45:09.134Z,62.54
2023-04-15T13:47:38.707Z,62.26
2023-04-15T13:50:10.531Z,62.64
2023-04-15T13:52:42.140Z,62.11
2023-04-15T13:55:22.266Z,61.52
2023-04-15T13:57:51.042Z,61.98
2023-04-15T14:00:20.504Z,62.10
2023-04-15T14:02:57.789Z,62.20
2023-04-15T14:05:24.732Z,61.89
2023-04-15T14:07:51.525Z,62.12
2023-04-15T14:10:18.596Z,62.48
2023-04-15T14:12:45.498Z,62.20
2023-04-15T14:15:17.765Z,61.67
2023-04-15T14:17:47.127Z,61.91
2023-04-15T14:20:18.751Z,61.59
2023-04-15T14:22:52.599Z,61.79
2023-04-15T14:25:33.633Z,61.97
2023-04-15T14:28:03.790Z,62.32
2023-04-15T14:30:31.015Z,61.50
2023-04-15T14:33:02.521Z,61.67
2023-04-15T14:35:31.894Z,61.40
2023-04-15T14:38:01.058Z,61.23
2023-04-15T14:40:30.512Z,60.83
2023-04-15T14:42:57.426Z,60.85
2023-04-15T14:45:26.477Z,61.41
2023-04-15T14:47:57.836Z,61.88
2023-04-15T14:50:31.445Z,61.89
2023-04-15T14:53:01.362Z,62.50
2023-04-15T14:55:28.287Z,62.63
2023-04-15T14:57:58.540Z,63.32
2023-04-15T15:00:32.747Z,63.67
2023-04-15T15:03:02.035Z,64.20
2023-04-15T15:05:31.328Z,64.74
2023-04-15T15:08:02.915Z,64.78
2023-04-15T15:10:48.205Z,64.83
2023-04-15T15:13:18.067Z,65.07
2023-04-15T15:15:49.573Z,64.81
2023-04-15T15:18:18.923Z,64.58
2023-04-15T15:20:46.508Z,64.27
2023-04-15T15:23:18.066Z,64.55
2023-04-15T15:25:51.814Z,64.66
2023-04-15T15:28:22.066Z,64.94
2023-04-15T15:30:56.059Z,65.26
2023-04-15T15:33:29.011Z,66.17
2023-04-15T15:36:03.858Z,66.40
2023-04-15T15:38:33.873Z,66.30
2023-04-15T15:41:00.821Z,66.12
2023-04-15T15:43:27.715Z,66.39
2023-04-15T15:45:57.136Z,66.94
2023-04-15T15:48:24.560Z,67.16
2023-04-15T15:50:55.961Z,67.65
2023-04-15T15:53:26.019Z,67.98
2023-04-15T15:55:59.914Z,68.17
2023-04-15T15:58:31.475Z,67.91
2023-04-15T16:01:00.416Z,68.13
2023-04-15T16:03:31.262Z,68.33
2023-04-15T16:06:00.461Z,68.80
2023-04-15T16:08:33.396Z,68.78
2023-04-15T16:11:04.670Z,68.93
2023-04-15T16:13:36.236Z,68.92
2023-04-15T16:16:07.625Z,69.21
2023-04-15T16:18:37.502Z,69.48
2023-04-15T16:21:14.088Z,69.62
2023-04-15T16:23:46.992Z,69.65
2023-04-15T16:26:14.118Z,69.19
2023-04-15T16:28:41.435Z,68.92
2023-04-15T16:31:08.454Z,69.31
2023-04-15T16:33:35.737Z,69.32
2023-04-15T16:36:05.395Z,69.42
2023-04-15T16:38:40.025Z,69.08
2023-04-15T16:41:07.095Z,69.07
2023-04-15T16:43:38.756Z,69.49
2023-04-15T16:46:11.044Z,69.59
2023-04-15T16:48:40.375Z,69.67
2023-04-15T16:51:19.037Z,69.00
2023-04-15T16:53:53.711Z,69.04
2023-04-15T16:56:23.775Z,68.69
2023-04-15T16:58:55.372Z,68.74
2023-04-15T17:01:26.790Z,68.68
2023-04-15T17:03:56.512Z,68.78
2023-04-15T17:06:28.091Z,68.61
2023-04-15T17:08:55.008Z,68.40
2023-04-15T17:11:24.361Z,68.48
2023-04-15T17:13:55.960Z,68.43
2023-04-15T17:16:28.131Z,68.48
2023-04-15T17:19:02.315Z,69.04
2023-04-15T17:21:32.295Z,69.24
2023-04-15T17:24:02.420Z,69.12
2023-04-15T17:26:32.059Z,69.19
2023-04-15T17:29:04.854Z,69.60
2023-04-15T17:31:36.221Z,69.82
2023-04-15T17:34:09.365Z,69.98
2023-04-15T17:36:38.852Z,69.73
2023-04-15T17:39:05.866Z,69.71
2023-04-15T17:41:35.451Z,70.67
2023-04-15T17:44:11.785Z,70.37
2023-04-15T17:46:43.582Z,70.36
2023-04-15T17:49:12.581Z,70.32
2023-04-15T17:51:39.421Z,70.56
2023-04-15T17:54:08.843Z,70.84
2023-04-15T17:56:35.861Z,70.94
2023-04-15T17:59:02.816Z,71.19
2023-04-15T18:01:29.769Z,71.09
2023-04-15T18:03:59.133Z,71.03
2023-04-15T18:06:28.620Z,71.29
2023-04-15T18:08:56.315Z,71.75
2023-04-15T18:11:23.121Z,72.22
2023-04-15T18:14:04.986Z,72.44
2023-04-15T18:16:32.384Z,72.27
2023-04-15T18:18:59.763Z,72.68
2023-04-15T18:21:29.501Z,72.86
2023-04-15T18:24:01.158Z,73.03
2023-04-15T18:26:28.982Z,73.14
2023-04-15T18:29:00.258Z,73.28
2023-04-15T18:31:33.238Z,73.63
2023-04-15T18:34:06.774Z,74.22
2023-04-15T18:36:34.175Z,73.62
2023-04-15T18:39:01.323Z,74.04
2023-04-15T18:41:28.296Z,74.05
2023-04-15T18:43:56.439Z,74.20
2023-04-15T18:46:25.628Z,74.48
2023-04-15T18:48:52.440Z,74.71
2023-04-15T18:51:21.744Z,74.81
2023-04-15T18:53:51.705Z,75.01
2023-04-15T18:56:21.054Z,75.06
2023-04-15T18:59:25.005Z,75.33
2023-04-15T19:01:37.811Z,75.51
2023-04-15T19:04:04.814Z,75.29
2023-04-15T19:06:34.229Z,75.59
2023-04-15T19:09:06.282Z,75.90
2023-04-15T19:11:37.612Z,76.45
2023-04-15T19:14:04.448Z,76.02
2023-04-15T19:16:37.167Z,75.90
2023-04-15T19:19:07.796Z,76.04
2023-04-15T19:21:38.011Z,76.29
2023-04-15T19:24:04.957Z,76.26
2023-04-15T19:26:34.243Z,76.74
2023-04-15T19:29:03.618Z,76.49
2023-04-15T19:31:30.726Z,76.32
2023-04-15T19:33:59.836Z,76.81
2023-04-15T19:36:28.984Z,77.01
2023-04-15T19:38:59.222Z,77.13
2023-04-15T19:41:26.528Z,77.22
2023-04-15T19:43:53.324Z,76.76
2023-04-15T19:46:23.328Z,76.94
2023-04-15T19:48:54.920Z,76.89
2023-04-15T19:51:24.107Z,77.37
2023-04-15T19:53:51.420Z,77.54
2023-04-15T19:56:24.312Z,77.60
2023-04-15T19:58:53.258Z,77.77
2023-04-15T20:01:23.167Z,77.82
2023-04-15T20:03:51.579Z,78.06
2023-04-15T20:06:21.772Z,77.98
2023-04-15T20:08:52.001Z,77.73
2023-04-15T20:11:22.329Z,78.05
2023-04-15T20:13:51.383Z,78.12
2023-04-15T20:16:18.317Z,78.23
2023-04-15T20:18:49.415Z,78.55
2023-04-15T20:21:18.712Z,78.88
2023-04-15T20:23:45.696Z,78.63
2023-04-15T20:26:18.370Z,79.04
2023-04-15T20:28:52.224Z,79.46
2023-04-15T20:31:19.009Z,79.47
2023-04-15T20:33:55.570Z,79.39
2023-04-15T20:36:22.575Z,79.64
2023-04-15T20:38:54.187Z,80.51
2023-04-15T20:41:25.773Z,79.92
2023-04-15T20:43:54.959Z,80.28
2023-04-15T20:46:22.714Z,80.49
2023-04-15T20:48:52.750Z,80.60
2023-04-15T20:51:21.805Z,80.84
2023-04-15T20:53:53.469Z,80.92
2023-04-15T20:56:22.785Z,81.04
2023-04-15T20:58:52.213Z,80.74
2023-04-15T21:01:19.114Z,81.39
2023-04-15T21:03:46.470Z,81.14
2023-04-15T21:06:13.717Z,81.25
2023-04-15T21:08:43.834Z,81.05
2023-04-15T21:11:16.478Z,81.40
2023-04-15T21:13:47.854Z,81.37
2023-04-15T21:16:14.654Z,81.17
2023-04-15T21:18:41.661Z,81.18
2023-04-15T21:21:13.238Z,81.57
2023-04-15T21:23:42.716Z,81.65
2023-04-15T21:26:11.827Z,81.81
2023-04-15T21:28:39.456Z,81.70
2023-04-15T21:31:08.778Z,81.68
2023-04-15T21:33:40.331Z,81.22
2023-04-15T21:36:07.548Z,81.74
2023-04-15T21:38:36.811Z,81.49
2023-04-15T21:41:09.816Z,81.78
2023-04-15T21:43:39.717Z,82.30
2023-04-15T21:46:21.964Z,81.24
2023-04-15T21:48:59.762Z,81.80
2023-04-15T21:51:26.928Z,81.68
2023-04-15T21:53:58.185Z,81.70
2023-04-15T21:56:27.566Z,81.79
2023-04-15T21:58:58.165Z,81.94
2023-04-15T22:01:29.975Z,82.19
2023-04-15T22:03:56.936Z,82.16
2023-04-15T22:06:23.973Z,82.00
2023-04-15T22:08:56.862Z,81.99
2023-04-15T22:11:28.679Z,82.00
2023-04-15T22:13:59.028Z,81.90
2023-04-15T22:16:28.739Z,81.84
2023-04-15T22:18:58.043Z,81.98
2023-04-15T22:21:27.593Z,81.91
2023-04-15T22:24:39.237Z,81.67
2023-04-15T22:26:43.730Z,81.59
2023-04-15T22:29:13.125Z,82.01
2023-04-15T22:31:44.981Z,81.56
2023-04-15T22:34:16.317Z,82.03
2023-04-15T22:36:45.617Z,81.80
2023-04-15T22:39:17.551Z,81.74
2023-04-15T22:41:49.894Z,81.99
2023-04-15T22:44:21.409Z,81.78
2023-04-15T22:46:51.251Z,82.46
2023-04-15T22:49:18.052Z,82.22
2023-04-15T22:51:47.566Z,82.04
2023-04-15T22:54:14.315Z,82.60
2023-04-15T22:56:43.327Z,82.80
2023-04-15T22:59:10.221Z,82.81
2023-04-15T23:01:39.730Z,82.84
2023-04-15T23:04:22.940Z,82.52
2023-04-15T23:06:54.716Z,83.26
2023-04-15T23:09:26.453Z,83.10
2023-04-15T23:11:56.798Z,82.90
2023-04-15T23:14:29.163Z,82.75
2023-04-15T23:17:01.917Z,83.06
2023-04-15T23:19:33.718Z,82.94
2023-04-15T23:22:07.123Z,82.77
2023-04-15T23:24:38.685Z,83.12
2023-04-15T23:27:05.478Z,83.21
2023-04-15T23:29:32.254Z,83.28
2023-04-15T23:32:03.800Z,83.60
2023-04-15T23:34:33.212Z,83.47
2023-04-15T23:36:59.971Z,84.25
2023-04-15T23:39:30.580Z,83.69
2023-04-15T23:41:59.600Z,83.50
2023-04-15T23:44:28.850Z,83.75
2023-04-15T23:47:00.628Z,83.70
2023-04-15T23:49:27.499Z,83.54
2023-04-15T23:51:57.384Z,83.93
2023-04-15T23:54:24.348Z,84.01
2023-04-15T23:56:53.451Z,84.25
2023-04-15T23:59:23.273Z,84.25
